Time;durP1;ratioP1;P1;durP2;ratioP2;P2;SDS_P1;SDS_P2;PMS_P1;PMS_P2;Temp;Humidity;BMP_temperature;BMP_pressure;BME280_temperature;BME280_humidity;BME280_pressure;Samples;Min_cycle;Max_cycle;Signal;HPM_P1;HPM_P2
2021/07/16 00:00:18;;;;;;;0.40;0.20;;;;;;;17.85;100.00;100273.78;5012647;28;20490;-82
2021/07/16 00:02:46;;;;;;;0.40;0.20;;;;;;;17.63;100.00;100275.97;5003959;28;21042;-83
2021/07/16 00:05:13;;;;;;;0.40;0.20;;;;;;;17.74;100.00;100273.56;5015320;28;20452;-83
2021/07/16 00:07:41;;;;;;;0.40;0.20;;;;;;;17.84;100.00;100276.56;5015269;28;20435;-82
2021/07/16 00:10:10;;;;;;;0.40;0.30;;;;;;;17.93;100.00;100278.69;5015222;28;20448;-82
2021/07/16 00:12:37;;;;;;;0.40;0.20;;;;;;;17.91;100.00;100273.41;5041615;28;20471;-82
2021/07/16 00:15:06;;;;;;;0.40;0.20;;;;;;;17.90;100.00;100273.50;5029328;28;20912;-82
2021/07/16 00:17:33;;;;;;;0.40;0.30;;;;;;;18.03;100.00;100269.13;5003377;28;20425;-82
2021/07/16 00:19:59;;;;;;;0.40;0.20;;;;;;;17.97;100.00;100264.13;5010837;28;20419;-82
2021/07/16 00:22:27;;;;;;;0.40;0.20;;;;;;;17.99;100.00;100260.41;5001892;28;20508;-83
2021/07/16 00:24:54;;;;;;;0.40;0.20;;;;;;;18.11;100.00;100257.94;4996581;28;20514;-82
2021/07/16 00:27:20;;;;;;;0.40;0.30;;;;;;;18.13;100.00;100253.31;5006570;28;20428;-82
2021/07/16 00:29:47;;;;;;;0.40;0.20;;;;;;;18.18;100.00;100270.03;5014046;28;20507;-82
2021/07/16 00:32:13;;;;;;;0.40;0.20;;;;;;;18.11;100.00;100263.31;5011884;28;21013;-82
2021/07/16 00:34:41;;;;;;;0.40;0.20;;;;;;;18.13;100.00;100261.41;5012760;28;20453;-82
2021/07/16 00:37:07;;;;;;;0.40;0.20;;;;;;;18.38;100.00;100267.03;5029436;28;20448;-83
2021/07/16 00:39:35;;;;;;;0.40;0.20;;;;;;;18.44;100.00;100273.84;5013236;28;20435;-83
2021/07/16 00:42:03;;;;;;;0.40;0.30;;;;;;;18.33;100.00;100261.03;5014376;28;20586;-83
2021/07/16 00:44:32;;;;;;;0.40;0.20;;;;;;;18.32;100.00;100262.84;5012623;28;20412;-83
2021/07/16 00:46:59;;;;;;;0.40;0.20;;;;;;;18.34;100.00;100252.00;5015861;28;20495;-83
2021/07/16 00:49:25;;;;;;;0.40;0.20;;;;;;;18.29;100.00;100265.75;5008556;28;20482;-81
2021/07/16 00:51:52;;;;;;;0.40;0.20;;;;;;;18.25;100.00;100269.59;4996534;28;20760;-81
2021/07/16 00:54:20;;;;;;;2.10;1.30;;;;;;;18.25;100.00;100263.34;4999870;28;20503;-81
2021/07/16 00:56:47;;;;;;;3.30;0.73;;;;;;;18.23;100.00;100257.19;5002781;28;20810;-81
2021/07/16 00:59:16;;;;;;;0.40;0.20;;;;;;;18.09;100.00;100255.31;5032284;28;20427;-82
2021/07/16 01:01:43;;;;;;;0.40;0.27;;;;;;;17.97;100.00;100265.00;5016150;28;20622;-82
2021/07/16 01:04:10;;;;;;;0.40;0.30;;;;;;;17.94;100.00;100259.78;5044600;28;20518;-81
2021/07/16 01:06:37;;;;;;;0.40;0.20;;;;;;;17.97;100.00;100262.31;5016137;28;20435;-81
2021/07/16 01:09:05;;;;;;;0.40;0.30;;;;;;;17.97;100.00;100266.81;5017117;28;20463;-81
2021/07/16 01:11:33;;;;;;;0.40;0.20;;;;;;;17.97;100.00;100262.31;5015352;28;20453;-81
2021/07/16 01:14:00;;;;;;;0.40;0.20;;;;;;;17.89;100.00;100263.72;5023085;28;20508;-82
2021/07/16 01:16:26;;;;;;;0.40;0.30;;;;;;;17.95;100.00;100258.81;5013130;28;20427;-82
2021/07/16 01:18:54;;;;;;;0.40;0.20;;;;;;;17.97;100.00;100254.25;5032819;28;20881;-81
2021/07/16 01:21:23;;;;;;;0.40;0.20;;;;;;;17.95;100.00;100261.50;5012485;28;20495;-82
2021/07/16 01:23:51;;;;;;;0.40;0.20;;;;;;;17.86;100.00;100274.66;5005531;28;20476;-81
2021/07/16 01:26:18;;;;;;;0.50;0.40;;;;;;;17.91;100.00;100265.34;5004723;28;20452;-81
2021/07/16 01:28:45;;;;;;;0.40;0.20;;;;;;;17.92;100.00;100268.91;5005693;28;20421;-81
2021/07/16 01:31:12;;;;;;;0.40;0.20;;;;;;;17.97;100.00;100270.38;5011596;28;21005;-82
2021/07/16 01:33:39;;;;;;;0.40;0.20;;;;;;;17.94;100.00;100272.38;5001122;28;20481;-81
2021/07/16 01:36:05;;;;;;;0.40;0.20;;;;;;;17.91;100.00;100273.41;4997504;28;20847;-82
2021/07/16 01:38:32;;;;;;;0.40;0.20;;;;;;;17.73;100.00;100269.13;5004248;28;20858;-82
2021/07/16 01:40:59;;;;;;;0.40;0.20;;;;;;;17.75;100.00;100280.66;5012381;28;20449;-81
2021/07/16 01:43:25;;;;;;;0.40;0.20;;;;;;;17.82;100.00;100279.38;5015782;28;20993;-81
2021/07/16 01:45:52;;;;;;;0.40;0.20;;;;;;;17.96;100.00;100281.25;5014643;28;20810;-81
2021/07/16 01:48:19;;;;;;;0.40;0.20;;;;;;;17.97;100.00;100258.75;5008720;28;20534;-81
2021/07/16 01:50:49;;;;;;;0.40;0.20;;;;;;;17.89;100.00;100263.72;5003110;28;20481;-80
2021/07/16 01:53:18;;;;;;;0.40;0.20;;;;;;;18.03;100.00;100270.00;5029346;28;20448;-81
2021/07/16 01:55:47;;;;;;;0.40;0.20;;;;;;;17.95;100.00;100279.47;5007273;28;20802;-81
2021/07/16 01:58:15;;;;;;;0.40;0.20;;;;;;;17.94;100.00;100275.91;4994230;28;20436;-81
2021/07/16 02:00:45;;;;;;;0.40;0.20;;;;;;;17.71;100.00;100271.91;5012835;28;20455;-81
2021/07/16 02:03:15;;;;;;;0.50;0.40;;;;;;;17.70;100.00;100267.50;5030414;28;20481;-81
2021/07/16 02:05:44;;;;;;;0.40;0.20;;;;;;;17.63;100.00;100266.06;5001977;28;20896;-81
2021/07/16 02:08:14;;;;;;;0.40;0.20;;;;;;;17.68;100.00;100272.09;5013354;28;20452;-81
2021/07/16 02:10:46;;;;;;;0.40;0.20;;;;;;;17.72;100.00;100268.25;5006084;28;20446;-81
2021/07/16 02:13:13;;;;;;;0.40;0.20;;;;;;;17.57;100.00;100282.56;5010786;28;20538;-81
2021/07/16 02:15:42;;;;;;;0.40;0.20;;;;;;;17.64;100.00;100283.06;5014443;28;20458;-81
2021/07/16 02:18:09;;;;;;;0.40;0.20;;;;;;;17.70;100.00;100290.81;5013596;28;20445;-81
2021/07/16 02:20:39;;;;;;;0.40;0.40;;;;;;;17.80;100.00;100280.38;5004020;28;20495;-81
2021/07/16 02:23:12;;;;;;;0.40;0.20;;;;;;;17.66;100.00;100279.31;5000376;28;20512;-81
2021/07/16 02:25:39;;;;;;;0.40;0.20;;;;;;;17.55;100.00;100276.41;5013766;28;20597;-81
2021/07/16 02:28:08;;;;;;;0.40;0.20;;;;;;;17.57;100.00;100277.19;4996321;28;20504;-81
2021/07/16 02:30:35;;;;;;;0.53;0.53;;;;;;;17.46;100.00;100280.50;4994782;28;20454;-81
2021/07/16 02:33:03;;;;;;;0.40;0.20;;;;;;;17.50;100.00;100277.63;4996060;28;20477;-81
2021/07/16 02:35:32;;;;;;;0.40;0.20;;;;;;;17.47;100.00;100276.84;5011097;28;20519;-81
2021/07/16 02:38:00;;;;;;;0.40;0.30;;;;;;;17.40;100.00;100267.38;5030317;28;20443;-82
2021/07/16 02:40:27;;;;;;;0.40;0.20;;;;;;;17.57;100.00;100279.00;5013955;28;20460;-81
2021/07/16 02:42:54;;;;;;;0.40;0.20;;;;;;;17.37;100.00;100289.06;5032725;28;20467;-81
2021/07/16 02:45:22;;;;;;;0.40;0.20;;;;;;;17.56;100.00;100271.91;5014321;28;20472;-82
2021/07/16 02:47:51;;;;;;;0.40;0.20;;;;;;;17.55;100.00;100283.63;5030061;28;20456;-81
2021/07/16 02:50:23;;;;;;;0.80;0.80;;;;;;;17.39;100.00;100272.84;5046576;28;20480;-82
2021/07/16 02:52:51;;;;;;;0.40;0.20;;;;;;;17.40;100.00;100269.22;5013917;28;20465;-82
2021/07/16 02:55:19;;;;;;;0.40;0.20;;;;;;;17.46;100.00;100288.56;5028465;28;20445;-82
2021/07/16 02:57:46;;;;;;;0.40;0.20;;;;;;;17.60;100.00;100297.66;5003248;28;20456;-81
2021/07/16 03:00:16;;;;;;;0.40;0.20;;;;;;;17.57;100.00;100297.84;5013220;28;20456;-81
2021/07/16 03:02:45;;;;;;;0.50;0.40;;;;;;;17.72;100.00;100302.34;5029917;28;20551;-81
2021/07/16 03:05:15;;;;;;;0.40;0.30;;;;;;;17.83;100.00;100297.22;5046065;28;20429;-81
2021/07/16 03:07:43;;;;;;;0.73;0.67;;;;;;;17.82;100.00;100290.13;5046625;28;20518;-82
2021/07/16 03:10:13;;;;;;;0.40;0.40;;;;;;;17.73;100.00;100299.56;5014178;28;20461;-82
2021/07/16 03:12:40;;;;;;;0.40;0.20;;;;;;;17.75;100.00;100315.63;5032803;28;20611;-82
2021/07/16 03:15:12;;;;;;;1.13;1.13;;;;;;;17.82;100.00;100316.09;5013798;28;20431;-82
2021/07/16 03:17:39;;;;;;;0.40;0.20;;;;;;;17.76;100.00;100322.72;5014166;28;20424;-81
2021/07/16 03:20:15;;;;;;;0.40;0.20;;;;;;;17.67;100.00;100321.38;5001255;28;20507;-81
2021/07/16 03:22:42;;;;;;;0.40;0.20;;;;;;;17.85;100.00;100327.59;5013438;28;20466;-81
2021/07/16 03:25:12;;;;;;;0.40;0.20;;;;;;;17.91;100.00;100315.59;5004832;28;20547;-82
2021/07/16 03:27:39;;;;;;;0.40;0.20;;;;;;;18.02;100.00;100326.59;5013390;28;20419;-82
2021/07/16 03:30:09;;;;;;;0.40;0.20;;;;;;;17.94;100.00;100316.25;5002432;28;21354;-81
2021/07/16 03:32:36;;;;;;;0.40;0.20;;;;;;;18.02;100.00;100327.44;5014330;28;20476;-82
2021/07/16 03:35:04;;;;;;;0.40;0.20;;;;;;;18.11;100.00;100325.19;5038741;28;20510;-81
2021/07/16 03:37:35;;;;;;;0.50;0.40;;;;;;;18.13;100.00;100340.28;4997747;28;20457;-81
2021/07/16 03:40:08;;;;;;;0.40;0.20;;;;;;;18.15;100.00;100332.97;5002519;28;20457;-82
2021/07/16 03:42:35;;;;;;;1.23;1.23;;;;;;;18.22;100.00;100330.78;4999738;28;20487;-82
2021/07/16 03:45:03;;;;;;;0.40;0.20;;;;;;;18.20;100.00;100330.00;5029596;28;20473;-81
2021/07/16 03:47:30;;;;;;;0.60;0.50;;;;;;;18.08;100.00;100306.53;5024916;28;20465;-82
2021/07/16 03:49:57;;;;;;;0.40;0.30;;;;;;;18.20;100.00;100340.78;5003603;28;20511;-81
2021/07/16 03:52:24;;;;;;;0.47;0.40;;;;;;;18.15;100.00;100332.13;5014025;28;20495;-82
2021/07/16 03:54:51;;;;;;;0.50;0.47;;;;;;;18.19;100.00;100341.72;5012304;28;20870;-82
2021/07/16 03:57:18;;;;;;;0.40;0.27;;;;;;;18.05;100.00;100342.53;4997892;28;20466;-82
2021/07/16 03:59:45;;;;;;;2.30;0.70;;;;;;;18.10;100.00;100335.09;5013149;28;20423;-82
2021/07/16 04:02:12;;;;;;;0.40;0.20;;;;;;;18.13;100.00;100340.28;5007828;28;20961;-81
2021/07/16 04:04:39;;;;;;;0.40;0.20;;;;;;;18.13;100.00;100351.03;5002983;28;20450;-81
2021/07/16 04:07:07;;;;;;;0.40;0.20;;;;;;;18.11;100.00;100342.19;4998144;28;20478;-81
2021/07/16 04:09:34;;;;;;;0.40;0.20;;;;;;;18.16;100.00;100336.53;5045532;28;20420;-82
2021/07/16 04:12:12;;;;;;;0.40;0.20;;;;;;;18.15;100.00;100340.19;5023101;28;20445;-82
2021/07/16 04:14:41;;;;;;;0.40;0.20;;;;;;;18.06;100.00;100337.06;5006511;28;20450;-82
2021/07/16 04:17:17;;;;;;;0.40;0.20;;;;;;;18.20;100.00;100343.47;5002773;28;20428;-82
2021/07/16 04:19:45;;;;;;;0.40;0.20;;;;;;;18.26;100.00;100343.97;5007639;28;20476;-81
2021/07/16 04:22:12;;;;;;;0.50;0.40;;;;;;;18.27;100.00;100342.16;5006471;28;20572;-82
2021/07/16 04:24:41;;;;;;;0.40;0.20;;;;;;;18.26;100.00;100343.13;5005692;28;20456;-81
2021/07/16 04:27:09;;;;;;;0.40;0.20;;;;;;;18.34;100.00;100336.28;5006489;28;20439;-81
2021/07/16 04:29:37;;;;;;;0.40;0.20;;;;;;;18.35;100.00;100343.41;5013027;28;20516;-81
2021/07/16 04:32:05;;;;;;;0.57;0.47;;;;;;;18.33;100.00;100342.63;5015386;28;20476;-82
2021/07/16 04:34:33;;;;;;;0.40;0.20;;;;;;;18.39;100.00;100340.56;5007649;28;20482;-81
2021/07/16 04:37:00;;;;;;;0.53;0.50;;;;;;;18.45;100.00;100345.56;5049566;28;20423;-81
2021/07/16 04:39:27;;;;;;;0.40;0.30;;;;;;;18.40;100.00;100340.47;5048005;28;20467;-82
2021/07/16 04:41:54;;;;;;;0.40;0.20;;;;;;;18.37;100.00;100343.34;5018472;28;20461;-82
2021/07/16 04:44:22;;;;;;;0.40;0.20;;;;;;;18.32;100.00;100343.59;5035253;28;20423;-82
2021/07/16 04:46:50;;;;;;;0.40;0.20;;;;;;;18.44;100.00;100359.97;5011628;28;20435;-81
2021/07/16 04:49:17;;;;;;;0.50;0.50;;;;;;;18.40;100.00;100353.94;5017701;28;20453;-82
2021/07/16 04:51:44;;;;;;;0.77;0.77;;;;;;;18.45;100.00;100356.31;5013925;28;20453;-82
2021/07/16 04:54:16;;;;;;;0.50;0.33;;;;;;;18.47;100.00;100366.03;5014203;28;20496;-82
2021/07/16 04:56:43;;;;;;;0.40;0.20;;;;;;;18.50;100.00;100359.59;5005639;28;20424;-83
2021/07/16 04:59:10;;;;;;;0.40;0.20;;;;;;;18.55;100.00;100373.66;5007725;28;20954;-82
2021/07/16 05:01:38;;;;;;;0.77;0.77;;;;;;;18.54;100.00;100348.56;5008593;28;20771;-82
2021/07/16 05:04:05;;;;;;;13.03;2.40;;;;;;;18.74;100.00;100384.22;5009238;28;20500;-82
2021/07/16 05:06:32;;;;;;;0.40;0.20;;;;;;;18.65;100.00;100385.66;5035996;28;20528;-82
2021/07/16 05:08:58;;;;;;;0.40;0.40;;;;;;;18.58;100.00;100379.72;5027875;28;20925;-81
2021/07/16 05:11:25;;;;;;;1.23;1.03;;;;;;;18.66;100.00;100382.00;5019235;28;20427;-81
2021/07/16 05:13:52;;;;;;;0.40;0.20;;;;;;;18.66;100.00;100378.44;5015703;28;20814;-82
2021/07/16 05:16:18;;;;;;;0.40;0.20;;;;;;;18.75;100.00;100386.81;5015529;28;20480;-81
2021/07/16 05:18:45;;;;;;;0.57;0.57;;;;;;;18.58;100.00;100381.56;5001613;28;20938;-81
2021/07/16 05:21:13;;;;;;;0.40;0.20;;;;;;;18.66;100.00;100381.13;5006997;28;20516;-81
2021/07/16 05:23:45;;;;;;;0.40;0.30;;;;;;;18.69;100.00;100373.72;5008663;28;20494;-80
2021/07/16 05:26:12;;;;;;;0.53;0.47;;;;;;;18.74;100.00;100379.69;5008307;28;20430;-81
2021/07/16 05:28:39;;;;;;;0.40;0.20;;;;;;;18.84;100.00;100388.09;5005888;28;20450;-81
2021/07/16 05:31:08;;;;;;;0.40;0.20;;;;;;;18.78;100.00;100401.94;5006983;28;20432;-81
2021/07/16 05:33:35;;;;;;;1.03;1.03;;;;;;;18.71;100.00;100400.56;5007615;28;20432;-81
2021/07/16 05:36:03;;;;;;;1.23;1.13;;;;;;;18.74;100.00;100401.25;5044700;28;20460;-80
2021/07/16 05:38:30;;;;;;;0.60;0.60;;;;;;;18.73;100.00;100401.34;5009519;28;20445;-80
2021/07/16 05:40:57;;;;;;;0.40;0.20;;;;;;;18.83;100.00;100406.09;5014573;28;20481;-83
2021/07/16 05:43:24;;;;;;;0.40;0.20;;;;;;;18.78;100.00;100396.56;4999616;28;20468;-80
2021/07/16 05:45:50;;;;;;;0.40;0.30;;;;;;;18.87;100.00;100404.94;5002702;28;20453;-81
2021/07/16 05:48:17;;;;;;;0.40;0.20;;;;;;;18.91;100.00;100393.03;5014581;28;20558;-80
2021/07/16 05:50:46;;;;;;;1.23;1.03;;;;;;;18.97;100.00;100399.84;5008787;28;20440;-80
2021/07/16 05:53:13;;;;;;;0.80;0.80;;;;;;;19.11;100.00;100407.06;5009805;28;20523;-81
2021/07/16 05:55:40;;;;;;;0.50;0.50;;;;;;;19.00;100.00;100413.13;5009169;28;20419;-81
2021/07/16 05:58:08;;;;;;;0.50;0.50;;;;;;;19.08;100.00;100410.84;5015377;28;20522;-81
2021/07/16 06:00:34;;;;;;;0.50;0.40;;;;;;;19.16;100.00;100407.66;5002421;28;20867;-81
2021/07/16 06:03:04;;;;;;;0.40;0.20;;;;;;;19.20;100.00;100407.38;5003901;28;21024;-80
2021/07/16 06:05:34;;;;;;;3.00;0.97;;;;;;;19.26;100.00;100407.94;4995785;28;20445;-80
2021/07/16 06:08:03;;;;;;;0.40;0.30;;;;;;;19.32;100.00;100419.19;5004745;28;20491;-81
2021/07/16 06:10:30;;;;;;;4.13;1.00;;;;;;;19.40;100.00;100416.91;5027605;28;20428;-80
2021/07/16 06:12:57;;;;;;;0.40;0.27;;;;;;;19.37;100.00;100422.50;5007096;28;20465;-80
2021/07/16 06:15:24;;;;;;;27.57;1.17;;;;;;;19.45;100.00;100420.16;5001127;28;20449;-80
2021/07/16 06:17:51;;;;;;;0.40;0.20;;;;;;;19.41;100.00;100415.94;5031271;28;20445;-80
2021/07/16 06:20:18;;;;;;;5.03;2.80;;;;;;;19.44;100.00;100417.56;5022110;28;20427;-81
2021/07/16 06:22:45;;;;;;;0.90;0.90;;;;;;;19.53;100.00;100417.84;5010084;28;21076;-83
2021/07/16 06:25:14;;;;;;;0.50;0.50;;;;;;;19.64;100.00;100419.03;5016966;28;20466;-83
2021/07/16 06:27:41;;;;;;;0.40;0.30;;;;;;;19.64;100.00;100405.56;5002094;28;20439;-81
2021/07/16 06:30:09;;;;;;;0.40;0.20;;;;;;;19.71;100.00;100406.88;4997707;28;20877;-81
2021/07/16 06:32:35;;;;;;;11.47;2.40;;;;;;;20.00;100.00;100411.25;4995362;28;20476;-81
2021/07/16 06:35:04;;;;;;;0.50;0.40;;;;;;;19.91;100.00;100424.50;5004560;28;20441;-81
2021/07/16 06:37:30;;;;;;;0.40;0.30;;;;;;;19.96;100.00;100408.84;5004928;28;20444;-82
2021/07/16 06:39:57;;;;;;;0.40;0.30;;;;;;;20.10;100.00;100420.47;5008064;28;20440;-80
2021/07/16 06:42:24;;;;;;;0.40;0.30;;;;;;;20.29;100.00;100428.25;5008411;28;20461;-81
2021/07/16 06:44:51;;;;;;;1.50;1.50;;;;;;;20.43;100.00;100413.84;5037811;28;20443;-80
2021/07/16 06:47:18;;;;;;;1.37;0.63;;;;;;;20.44;100.00;100431.78;5010928;28;20437;-79
2021/07/16 06:49:46;;;;;;;0.40;0.27;;;;;;;20.82;100.00;100428.28;5011022;28;20899;-81
2021/07/16 06:52:13;;;;;;;0.50;0.30;;;;;;;20.58;100.00;100438.94;5018704;28;20842;-80
2021/07/16 06:54:40;;;;;;;0.40;0.30;;;;;;;20.88;100.00;100442.25;5013075;28;20424;-81
2021/07/16 06:57:07;;;;;;;2.53;2.43;;;;;;;20.71;100.00;100434.44;5026102;28;20411;-81
2021/07/16 06:59:34;;;;;;;1.13;1.13;;;;;;;20.65;100.00;100448.34;5010423;28;20456;-81
2021/07/16 07:02:03;;;;;;;1.57;0.70;;;;;;;20.60;100.00;100447.81;5018510;28;20484;-80
2021/07/16 07:04:31;;;;;;;0.63;0.60;;;;;;;20.72;100.00;100459.63;5015926;28;20473;-80
2021/07/16 07:06:57;;;;;;;0.40;0.20;;;;;;;20.82;100.00;100456.16;5003285;28;20879;-80
2021/07/16 07:09:25;;;;;;;0.40;0.20;;;;;;;20.59;100.00;100462.28;5013855;28;20416;-80
2021/07/16 07:11:52;;;;;;;4.13;1.13;;;;;;;20.80;100.00;100458.13;5028415;28;20491;-80
2021/07/16 07:14:18;;;;;;;0.93;0.93;;;;;;;20.96;100.00;100463.31;5053901;28;20418;-81
2021/07/16 07:16:45;;;;;;;0.80;0.63;;;;;;;21.14;100.00;100467.47;5026949;28;20452;-80
2021/07/16 07:19:11;;;;;;;0.50;0.50;;;;;;;20.70;100.00;100462.44;5016857;28;20445;-83
2021/07/16 07:21:38;;;;;;;0.40;0.40;;;;;;;20.68;100.00;100470.63;5023379;28;20419;-82
2021/07/16 07:24:05;;;;;;;0.60;0.60;;;;;;;20.64;100.00;100468.22;5019246;28;20474;-82
2021/07/16 07:26:33;;;;;;;0.50;0.43;;;;;;;20.75;100.00;100471.09;5014672;28;20441;-81
2021/07/16 07:29:00;;;;;;;0.40;0.20;;;;;;;20.62;100.00;100467.47;5007819;28;20453;-81
2021/07/16 07:31:27;;;;;;;0.73;0.73;;;;;;;20.75;100.00;100475.63;5002729;28;20456;-81
2021/07/16 07:33:54;;;;;;;2.00;0.83;;;;;;;20.85;100.00;100482.13;5001458;28;20456;-81
2021/07/16 07:36:21;;;;;;;0.40;0.30;;;;;;;20.73;100.00;100481.13;4999909;28;20441;-81
2021/07/16 07:38:48;;;;;;;1.33;1.27;;;;;;;20.73;100.00;100486.53;4997207;28;20449;-81
2021/07/16 07:41:15;;;;;;;0.40;0.30;;;;;;;21.13;100.00;100483.81;5002163;28;20818;-81
2021/07/16 07:43:41;;;;;;;0.77;0.77;;;;;;;20.75;100.00;100490.00;5034270;28;20547;-81
2021/07/16 07:46:08;;;;;;;0.50;0.40;;;;;;;21.09;100.00;100493.09;5020250;28;20461;-81
2021/07/16 07:48:35;;;;;;;0.40;0.40;;;;;;;21.08;100.00;100494.91;5002861;28;20432;-81
2021/07/16 07:51:02;;;;;;;0.40;0.20;;;;;;;20.95;100.00;100489.50;5004945;28;20427;-82
2021/07/16 07:53:30;;;;;;;3.23;1.70;;;;;;;21.23;100.00;100506.50;5024933;28;20441;-81
2021/07/16 07:55:57;;;;;;;0.50;0.30;;;;;;;21.04;100.00;100492.53;5008647;28;20535;-81
2021/07/16 07:58:23;;;;;;;0.40;0.20;;;;;;;21.01;100.00;100490.94;5005298;28;20460;-80
2021/07/16 08:00:50;;;;;;;0.50;0.40;;;;;;;21.27;100.00;100497.28;5014604;28;20466;-80
2021/07/16 08:03:17;;;;;;;1.10;0.97;;;;;;;21.44;100.00;100509.59;5015808;28;21042;-81
2021/07/16 08:05:44;;;;;;;0.50;0.47;;;;;;;21.47;100.00;100501.25;5001438;28;20464;-81
2021/07/16 08:08:11;;;;;;;0.40;0.20;;;;;;;21.34;100.00;100508.50;5006562;28;20463;-81
2021/07/16 08:10:38;;;;;;;0.40;0.20;;;;;;;21.21;100.00;100509.31;5018119;28;20475;-80
2021/07/16 08:13:04;;;;;;;0.40;0.20;;;;;;;21.29;100.00;100506.13;5010707;28;20438;-83
2021/07/16 08:15:31;;;;;;;0.40;0.30;;;;;;;20.82;100.00;100503.94;5010491;28;20426;-81
2021/07/16 08:17:58;;;;;;;2.20;2.10;;;;;;;20.97;100.00;100511.03;5010775;28;20534;-81
2021/07/16 08:20:25;;;;;;;0.80;0.77;;;;;;;20.80;100.00;100514.00;5009866;28;20442;-81
2021/07/16 08:22:52;;;;;;;0.40;0.27;;;;;;;20.87;100.00;100510.78;5000884;28;20518;-80
2021/07/16 08:25:18;;;;;;;1.13;1.13;;;;;;;21.20;100.00;100513.00;5001098;28;20435;-80
2021/07/16 08:27:46;;;;;;;6.83;1.70;;;;;;;21.29;100.00;100522.38;4996115;28;20952;-81
2021/07/16 08:30:15;;;;;;;2.67;1.03;;;;;;;21.44;100.00;100520.41;4993572;28;20484;-79
2021/07/16 08:32:43;;;;;;;0.40;0.30;;;;;;;21.55;100.00;100534.94;4995731;28;20476;-79
2021/07/16 08:35:13;;;;;;;0.50;0.40;;;;;;;21.46;100.00;100529.28;5011318;28;20929;-79
2021/07/16 08:37:40;;;;;;;0.40;0.20;;;;;;;21.10;100.00;100532.66;5001708;28;20510;-79
2021/07/16 08:40:07;;;;;;;1.37;1.27;;;;;;;20.84;100.00;100534.47;5011566;28;20432;-80
2021/07/16 08:42:35;;;;;;;0.40;0.20;;;;;;;21.08;100.00;100537.31;5010885;28;21072;-80
2021/07/16 08:45:05;;;;;;;0.50;0.40;;;;;;;21.04;100.00;100527.69;5010423;28;20470;-80
2021/07/16 08:47:34;;;;;;;0.40;0.20;;;;;;;21.35;100.00;100538.16;5011466;28;20449;-80
2021/07/16 08:50:04;;;;;;;2.23;2.20;;;;;;;21.48;100.00;100547.16;5000381;28;20488;-79
2021/07/16 08:52:31;;;;;;;0.60;0.60;;;;;;;21.22;100.00;100542.63;5010413;28;20451;-79
2021/07/16 08:55:00;;;;;;;0.40;0.20;;;;;;;21.34;100.00;100549.06;4999057;28;20424;-79
2021/07/16 08:57:29;;;;;;;1.07;1.07;;;;;;;21.46;100.00;100550.94;5009665;28;20444;-79
2021/07/16 08:59:56;;;;;;;0.60;0.60;;;;;;;21.73;100.00;100545.44;4999308;28;20451;-79
2021/07/16 09:02:27;;;;;;;0.40;0.20;;;;;;;21.62;100.00;100556.13;5004637;28;21149;-79
2021/07/16 09:05:00;;;;;;;0.40;0.30;;;;;;;21.67;100.00;100554.84;5003153;28;20506;-79
2021/07/16 09:07:27;;;;;;;0.53;0.53;;;;;;;22.06;100.00;100545.75;5010520;28;20875;-80
2021/07/16 09:10:08;;;;;;;0.40;0.23;;;;;;;22.13;100.00;100560.59;5003876;28;20459;-79
2021/07/16 09:12:36;;;;;;;0.40;0.30;;;;;;;21.93;100.00;100555.72;5010835;28;20476;-80
2021/07/16 09:15:14;;;;;;;0.40;0.30;;;;;;;21.82;100.00;100552.91;4998231;28;20962;-79
2021/07/16 09:17:46;;;;;;;0.40;0.30;;;;;;;21.86;100.00;100557.13;5010101;28;20530;-80
2021/07/16 09:20:24;;;;;;;0.40;0.20;;;;;;;21.77;100.00;100555.91;5004434;28;20411;-79
2021/07/16 09:23:14;;;;;;;0.40;0.20;;;;;;;22.00;100.00;100559.69;5009887;28;20519;-79
2021/07/16 09:25:42;;;;;;;0.47;0.30;;;;;;;22.07;100.00;100563.75;5002076;28;20553;-79
2021/07/16 09:28:29;;;;;;;0.40;0.20;;;;;;;22.31;100.00;100561.06;5011896;28;20522;-80
2021/07/16 09:31:18;;;;;;;0.40;0.30;;;;;;;22.21;100.00;100565.47;4998553;28;20498;-79
2021/07/16 09:33:51;;;;;;;0.40;0.20;;;;;;;21.93;100.00;100569.25;5004888;28;20553;-79
2021/07/16 09:36:38;;;;;;;0.50;0.40;;;;;;;22.09;100.00;100569.91;5009028;28;20487;-78
2021/07/16 09:39:16;;;;;;;0.40;0.30;;;;;;;22.26;100.00;100565.13;5008818;28;20433;-79
2021/07/16 09:41:50;;;;;;;2.07;1.97;;;;;;;22.13;100.00;100563.28;5011534;28;20776;-79
2021/07/16 09:44:52;;;;;;;0.40;0.30;;;;;;;22.21;100.00;100554.63;4996308;28;20483;-79
2021/07/16 09:47:21;;;;;;;0.73;0.73;;;;;;;22.13;100.00;100557.88;5004897;28;20507;-78
2021/07/16 09:50:03;;;;;;;3.13;3.03;;;;;;;22.22;100.00;100569.91;5002412;28;20755;-78
2021/07/16 09:52:32;;;;;;;0.40;0.20;;;;;;;22.11;100.00;100561.69;5003740;28;20523;-79
2021/07/16 09:55:21;;;;;;;0.70;0.70;;;;;;;22.23;100.00;100568.06;5003946;28;20433;-80
2021/07/16 09:57:49;;;;;;;0.40;0.30;;;;;;;22.43;100.00;100575.56;5042186;28;20511;-80
2021/07/16 10:00:20;;;;;;;0.40;0.20;;;;;;;22.48;100.00;100584.25;5018137;28;20416;-78
2021/07/16 10:02:54;;;;;;;0.40;0.20;;;;;;;22.51;100.00;100570.47;5010627;28;20519;-79
2021/07/16 10:05:22;;;;;;;0.40;0.30;;;;;;;22.07;100.00;100568.28;5004566;28;20934;-78
2021/07/16 10:07:50;;;;;;;0.77;0.77;;;;;;;22.39;100.00;100574.06;5000960;28;20464;-78
2021/07/16 10:10:18;;;;;;;0.40;0.20;;;;;;;22.61;100.00;100578.75;5009701;28;20449;-79
2021/07/16 10:12:47;;;;;;;0.93;0.93;;;;;;;22.73;100.00;100575.13;5001389;28;20477;-79
2021/07/16 10:15:15;;;;;;;0.40;0.20;;;;;;;22.28;100.00;100579.41;4998308;28;20485;-79
2021/07/16 10:17:42;;;;;;;0.40;0.20;;;;;;;22.25;100.00;100577.78;5006562;28;20518;-78
2021/07/16 10:20:15;;;;;;;0.40;0.20;;;;;;;22.01;100.00;100574.09;5003867;28;20432;-80
2021/07/16 10:22:45;;;;;;;1.37;0.70;;;;;;;22.05;100.00;100581.91;5003540;28;20475;-80
2021/07/16 10:25:19;;;;;;;0.40;0.20;;;;;;;21.97;100.00;100584.28;5004828;28;20497;-80
2021/07/16 10:27:46;;;;;;;0.57;0.57;;;;;;;21.80;100.00;100582.78;5005412;28;20495;-81
2021/07/16 10:30:19;;;;;;;1.10;0.90;;;;;;;22.02;100.00;100603.78;5001844;28;20493;-79
2021/07/16 10:32:52;;;;;;;0.40;0.20;;;;;;;22.02;100.00;100592.94;5006888;28;20487;-80
2021/07/16 10:35:26;;;;;;;0.80;0.60;;;;;;;21.64;100.00;100605.59;5007192;28;20419;-80
2021/07/16 10:37:58;;;;;;;0.40;0.30;;;;;;;21.75;100.00;100609.28;5011608;28;20445;-79
2021/07/16 10:40:36;;;;;;;0.40;0.20;;;;;;;21.92;100.00;100605.38;5014630;28;20426;-78
2021/07/16 10:43:05;;;;;;;0.40;0.30;;;;;;;21.95;100.00;100598.91;5001966;28;20446;-79
2021/07/16 10:45:38;;;;;;;0.50;0.37;;;;;;;21.64;100.00;100603.75;5014558;28;20527;-79
2021/07/16 10:48:19;;;;;;;1.13;1.13;;;;;;;21.71;100.00;100604.22;5005584;28;20527;-79
2021/07/16 10:50:52;;;;;;;0.40;0.20;;;;;;;21.91;100.00;100598.25;5013720;28;20854;-79
2021/07/16 10:53:27;;;;;;;0.70;0.70;;;;;;;21.79;100.00;100613.53;5029774;28;20531;-80
2021/07/16 10:55:54;;;;;;;0.40;0.20;;;;;;;21.70;100.00;100613.31;5032015;28;20500;-80
2021/07/16 10:58:26;;;;;;;0.40;0.20;;;;;;;21.95;100.00;100613.31;5009541;28;20901;-80
2021/07/16 11:00:55;;;;;;;0.40;0.20;;;;;;;22.30;100.00;100612.66;5012839;28;20492;-80
2021/07/16 11:03:42;;;;;;;0.40;0.30;;;;;;;22.19;100.00;100608.00;5010177;28;20881;-80
2021/07/16 11:06:14;;;;;;;0.40;0.20;;;;;;;22.09;100.00;100615.06;5014924;28;20470;-80
2021/07/16 11:08:41;;;;;;;0.40;0.20;;;;;;;22.20;100.00;100617.88;5001851;28;20959;-79
2021/07/16 11:11:18;;;;;;;0.40;0.20;;;;;;;22.26;100.00;100620.16;5006263;28;20457;-79
2021/07/16 11:13:52;;;;;;;0.40;0.20;;;;;;;22.56;100.00;100627.03;5007043;28;20469;-79
2021/07/16 11:16:23;;;;;;;0.50;0.40;;;;;;;22.45;100.00;100623.25;5006337;28;20463;-78
2021/07/16 11:19:11;;;;;;;0.40;0.20;;;;;;;22.40;100.00;100628.13;5000432;28;20459;-79
2021/07/16 11:21:42;;;;;;;0.40;0.30;;;;;;;22.68;100.00;100631.53;4997959;28;20426;-79
2021/07/16 11:24:18;;;;;;;0.40;0.20;;;;;;;23.16;100.00;100620.75;5000728;28;20943;-80